createdAt,value
2022-11-15T00:02:34.286Z,4.78
2022-11-15T00:05:55.203Z,4.75
2022-11-15T00:09:16.073Z,4.82
2022-11-15T00:12:36.955Z,4.78
2022-11-15T00:15:59.238Z,4.83
2022-11-15T00:19:20.006Z,4.75
2022-11-15T00:22:40.567Z,4.87
2022-11-15T00:26:01.213Z,4.79
2022-11-15T00:29:22.161Z,4.79
2022-11-15T00:33:06.222Z,4.74
2022-11-15T00:36:27.151Z,4.71
2022-11-15T00:39:48.040Z,4.75
2022-11-15T00:43:08.864Z,4.76
2022-11-15T00:46:29.430Z,4.74
2022-11-15T00:49:50.244Z,4.59
2022-11-15T00:53:11.359Z,4.56
2022-11-15T00:56:31.966Z,4.54
2022-11-15T00:59:52.739Z,4.68
2022-11-15T01:03:13.430Z,4.67
2022-11-15T01:06:34.101Z,4.72
2022-11-15T01:09:54.711Z,4.65
2022-11-15T01:13:15.853Z,4.67
2022-11-15T01:16:36.458Z,4.60
2022-11-15T01:19:56.900Z,4.69
2022-11-15T01:23:17.621Z,4.64
2022-11-15T01:26:38.408Z,4.64
2022-11-15T01:29:59.358Z,4.68
2022-11-15T01:33:20.343Z,4.66
2022-11-15T01:36:41.104Z,4.76
2022-11-15T01:40:01.965Z,4.65
2022-11-15T01:43:27.151Z,4.68
2022-11-15T01:46:49.149Z,4.67
2022-11-15T01:50:11.629Z,4.69
2022-11-15T01:53:33.240Z,4.74
2022-11-15T01:57:00.039Z,4.65
2022-11-15T02:00:21.615Z,4.77
2022-11-15T02:03:59.434Z,4.69
2022-11-15T02:07:22.654Z,4.64
2022-11-15T02:10:43.974Z,4.73
2022-11-15T02:14:05.627Z,4.68
2022-11-15T02:17:58.628Z,4.65
2022-11-15T02:21:25.404Z,4.69
2022-11-15T02:24:57.915Z,4.73
2022-11-15T02:28:21.298Z,4.81
2022-11-15T02:31:42.431Z,4.93
2022-11-15T02:35:03.273Z,4.90
2022-11-15T02:38:32.015Z,4.95
2022-11-15T02:41:52.914Z,4.94
2022-11-15T02:45:17.094Z,4.98
2022-11-15T02:48:38.939Z,4.96
2022-11-15T02:51:59.816Z,5.00
2022-11-15T02:55:46.962Z,4.97
2022-11-15T02:59:28.802Z,4.98
2022-11-15T03:02:59.291Z,5.01
2022-11-15T03:06:35.717Z,4.98
2022-11-15T03:10:06.485Z,5.01
2022-11-15T03:13:28.406Z,5.07
2022-11-15T03:17:12.587Z,5.05
2022-11-15T03:20:35.254Z,4.94
2022-11-15T03:23:56.518Z,4.97
2022-11-15T03:27:21.590Z,4.99
2022-11-15T03:30:44.772Z,4.96
2022-11-15T03:34:06.849Z,5.07
2022-11-15T03:37:32.784Z,4.97
2022-11-15T03:41:01.169Z,5.07
2022-11-15T03:44:28.231Z,5.13
2022-11-15T03:47:59.465Z,4.97
2022-11-15T03:51:20.395Z,4.95
2022-11-15T03:54:51.172Z,4.95
2022-11-15T03:58:11.985Z,4.96
2022-11-15T04:01:32.926Z,5.01
2022-11-15T04:04:53.832Z,5.11
2022-11-15T04:08:14.620Z,5.13
2022-11-15T04:11:35.533Z,5.03
2022-11-15T04:15:08.042Z,4.94
2022-11-15T04:18:29.176Z,4.97
2022-11-15T04:22:09.031Z,5.02
2022-11-15T04:25:32.499Z,4.97
2022-11-15T04:29:11.691Z,5.03
2022-11-15T04:32:32.514Z,5.16
2022-11-15T04:36:12.211Z,5.09
2022-11-15T04:39:33.215Z,5.09
2022-11-15T04:42:58.187Z,5.00
2022-11-15T04:46:24.653Z,5.00
2022-11-15T04:49:45.450Z,4.93
2022-11-15T04:53:06.966Z,4.83
2022-11-15T04:56:27.907Z,4.94
2022-11-15T04:59:48.778Z,5.02
2022-11-15T05:03:28.551Z,4.91
2022-11-15T05:06:50.109Z,4.83
2022-11-15T05:10:10.992Z,4.98
2022-11-15T05:13:32.001Z,4.99
2022-11-15T05:16:53.147Z,4.96
2022-11-15T05:20:16.282Z,5.05
2022-11-15T05:23:37.187Z,5.09
2022-11-15T05:26:57.801Z,5.16
2022-11-15T05:30:21.677Z,5.26
2022-11-15T05:33:43.653Z,5.23
2022-11-15T05:37:04.813Z,5.30
2022-11-15T05:40:27.358Z,5.33
2022-11-15T05:43:49.813Z,5.33
2022-11-15T05:47:12.670Z,5.30
2022-11-15T05:50:35.211Z,5.46
2022-11-15T05:53:57.749Z,5.50
2022-11-15T05:57:18.571Z,5.51
2022-11-15T06:00:39.413Z,5.48
2022-11-15T06:03:59.992Z,5.44
2022-11-15T06:07:20.826Z,5.50
2022-11-15T06:10:42.899Z,5.58
2022-11-15T06:14:03.551Z,5.70
2022-11-15T06:17:24.096Z,5.63
2022-11-15T06:20:44.567Z,5.54
2022-11-15T06:24:05.760Z,5.62
2022-11-15T06:27:26.433Z,5.67
2022-11-15T06:30:52.892Z,5.74
2022-11-15T06:34:14.098Z,5.81
2022-11-15T06:37:34.899Z,5.88
2022-11-15T06:40:56.068Z,5.95
2022-11-15T06:44:17.532Z,5.93
2022-11-15T06:47:45.498Z,5.92
2022-11-15T06:51:06.433Z,5.77
2022-11-15T06:54:27.338Z,5.79
2022-11-15T06:57:52.121Z,5.76
2022-11-15T07:01:13.885Z,5.79
2022-11-15T07:04:35.771Z,5.74
2022-11-15T07:07:57.281Z,5.82
2022-11-15T07:11:17.856Z,5.80
2022-11-15T07:14:38.659Z,5.87
2022-11-15T07:18:01.851Z,5.90
2022-11-15T07:21:27.263Z,5.94
2022-11-15T07:24:48.780Z,5.96
2022-11-15T07:28:09.476Z,6.06
2022-11-15T07:31:30.243Z,6.08
2022-11-15T07:34:51.130Z,6.23
2022-11-15T07:38:12.085Z,6.36
2022-11-15T07:41:32.642Z,6.53
2022-11-15T07:44:53.583Z,6.65
2022-11-15T07:48:14.267Z,6.61
2022-11-15T07:51:34.939Z,6.74
2022-11-15T07:54:55.709Z,6.76
2022-11-15T07:58:16.638Z,6.83
2022-11-15T08:01:37.607Z,6.78
2022-11-15T08:04:58.916Z,6.90
2022-11-15T08:08:19.789Z,7.06
2022-11-15T08:11:40.728Z,7.13
2022-11-15T08:15:01.241Z,7.13
2022-11-15T08:18:22.295Z,7.17
2022-11-15T08:21:43.145Z,7.23
2022-11-15T08:25:03.829Z,7.32
2022-11-15T08:28:24.519Z,7.36
2022-11-15T08:31:45.649Z,7.34
2022-11-15T08:35:07.047Z,7.23
2022-11-15T08:38:29.918Z,7.19
2022-11-15T08:41:51.372Z,7.10
2022-11-15T08:45:12.319Z,7.08
2022-11-15T08:48:33.281Z,7.01
2022-11-15T08:51:54.555Z,7.09
2022-11-15T08:55:17.562Z,7.11
2022-11-15T08:58:38.349Z,7.09
2022-11-15T09:01:59.358Z,7.06
2022-11-15T09:05:20.688Z,7.03
2022-11-15T09:08:57.360Z,6.98
2022-11-15T09:12:18.136Z,7.00
2022-11-15T09:15:38.802Z,7.04
2022-11-15T09:19:00.204Z,7.15
2022-11-15T09:22:20.892Z,7.27
2022-11-15T09:25:42.119Z,7.33
2022-11-15T09:29:02.988Z,7.47
2022-11-15T09:32:24.302Z,7.66
2022-11-15T09:35:45.018Z,7.74
2022-11-15T09:39:05.839Z,7.81
2022-11-15T09:42:45.994Z,7.89
2022-11-15T09:46:12.601Z,7.74
2022-11-15T09:49:19.475Z,7.65
2022-11-15T09:52:24.066Z,7.70
2022-11-15T09:55:33.803Z,7.72
2022-11-15T09:58:44.807Z,7.70
2022-11-15T10:01:55.051Z,7.69
2022-11-15T10:04:59.612Z,7.71
2022-11-15T10:08:04.896Z,7.71
2022-11-15T10:11:36.143Z,7.62
2022-11-15T10:14:32.427Z,7.79
2022-11-15T10:17:34.855Z,7.71
2022-11-15T10:20:58.764Z,7.77
2022-11-15T10:24:02.092Z,7.91
2022-11-15T10:27:10.266Z,7.85
2022-11-15T10:30:14.463Z,7.71
2022-11-15T10:33:22.735Z,7.72
2022-11-15T10:36:26.581Z,7.67
2022-11-15T10:39:28.982Z,7.86
2022-11-15T10:42:31.484Z,7.77
2022-11-15T10:45:35.014Z,7.76
2022-11-15T10:48:37.590Z,7.95
2022-11-15T10:51:45.717Z,7.94
2022-11-15T10:54:54.402Z,7.79
2022-11-15T10:58:01.470Z,7.77
2022-11-15T11:01:16.088Z,7.96
2022-11-15T11:04:19.762Z,8.01
2022-11-15T11:07:32.605Z,8.09
2022-11-15T11:10:51.125Z,8.14
2022-11-15T11:13:54.735Z,8.17
2022-11-15T11:17:15.805Z,8.21
2022-11-15T11:20:35.494Z,8.11
2022-11-15T11:23:56.899Z,8.08
2022-11-15T11:27:19.829Z,8.17
2022-11-15T11:30:40.130Z,8.29
2022-11-15T11:33:42.514Z,8.32
2022-11-15T11:36:47.901Z,8.59
2022-11-15T11:40:15.584Z,8.83
2022-11-15T11:43:24.102Z,8.77
2022-11-15T11:46:32.552Z,8.56
2022-11-15T11:49:37.898Z,8.43
2022-11-15T11:53:04.429Z,8.39
2022-11-15T11:56:30.169Z,8.46
2022-11-15T11:59:32.618Z,8.20
2022-11-15T12:02:36.699Z,8.21
2022-11-15T12:05:47.810Z,8.35
2022-11-15T12:09:02.131Z,8.30
2022-11-15T12:12:05.436Z,8.26
2022-11-15T12:15:10.802Z,8.29
2022-11-15T12:18:15.934Z,8.24
2022-11-15T12:21:39.105Z,8.35
2022-11-15T12:24:55.248Z,8.41
2022-11-15T12:28:04.413Z,8.16
2022-11-15T12:31:33.848Z,8.37
2022-11-15T12:34:39.055Z,8.46
2022-11-15T12:37:41.582Z,8.58
2022-11-15T12:41:04.701Z,8.55
2022-11-15T12:44:14.231Z,8.72
2022-11-15T12:47:23.883Z,8.54
2022-11-15T12:50:45.292Z,8.33
2022-11-15T12:53:47.546Z,8.39
2022-11-15T12:57:02.206Z,8.34
2022-11-15T13:00:13.748Z,8.13
2022-11-15T13:03:24.523Z,8.25
2022-11-15T13:06:39.556Z,8.27
2022-11-15T13:09:42.113Z,8.30
2022-11-15T13:12:47.473Z,8.21
2022-11-15T13:15:56.997Z,8.05
2022-11-15T13:18:59.971Z,7.92
2022-11-15T13:22:23.704Z,7.83
2022-11-15T13:25:37.971Z,7.64
2022-11-15T13:28:45.721Z,7.82
2022-11-15T13:31:48.362Z,7.90
2022-11-15T13:34:53.733Z,7.96
2022-11-15T13:37:57.150Z,7.84
2022-11-15T13:41:01.067Z,7.91
2022-11-15T13:44:04.392Z,7.93
2022-11-15T13:47:08.301Z,7.65
2022-11-15T13:50:13.956Z,7.74
2022-11-15T13:53:16.714Z,7.76
2022-11-15T13:56:20.561Z,7.51
2022-11-15T13:59:27.390Z,7.66
2022-11-15T14:02:34.026Z,7.80
2022-11-15T14:05:36.597Z,7.86
2022-11-15T14:08:42.893Z,7.94
2022-11-15T14:11:55.358Z,7.87
2022-11-15T14:14:58.523Z,7.65
2022-11-15T14:18:01.239Z,7.42
2022-11-15T14:21:08.624Z,7.37
2022-11-15T14:24:15.258Z,7.41
2022-11-15T14:27:17.475Z,7.33
2022-11-15T14:30:23.836Z,7.30
2022-11-15T14:33:33.521Z,7.14
2022-11-15T14:36:36.066Z,7.20
2022-11-15T14:39:38.353Z,7.25
2022-11-15T14:42:40.950Z,7.26
2022-11-15T14:45:43.449Z,7.25
2022-11-15T14:48:46.200Z,7.24
2022-11-15T14:51:48.383Z,7.17
2022-11-15T14:54:50.892Z,7.21
2022-11-15T14:57:56.056Z,7.26
2022-11-15T15:00:59.040Z,7.29
2022-11-15T15:04:01.456Z,7.20
2022-11-15T15:07:04.023Z,7.18
2022-11-15T15:13:31.267Z,7.13
2022-11-15T15:16:33.534Z,7.16
2022-11-15T15:19:36.025Z,7.16
2022-11-15T15:22:38.866Z,7.18
2022-11-15T15:25:42.970Z,7.17
2022-11-15T15:28:45.209Z,7.22
2022-11-15T15:31:48.257Z,7.13
2022-11-15T15:34:50.690Z,7.09
2022-11-15T15:37:53.253Z,7.11
2022-11-15T15:40:56.626Z,7.16
2022-11-15T15:43:59.092Z,7.17
2022-11-15T15:47:01.441Z,7.14
2022-11-15T15:50:04.656Z,7.14
2022-11-15T15:53:06.923Z,7.01
2022-11-15T15:56:10.464Z,7.06
2022-11-15T15:59:12.883Z,7.08
2022-11-15T16:02:15.487Z,7.04
2022-11-15T16:05:18.566Z,7.06
2022-11-15T16:08:21.986Z,7.06
2022-11-15T16:11:24.462Z,7.03
2022-11-15T16:14:26.641Z,7.03
2022-11-15T16:17:34.542Z,7.09
2022-11-15T16:20:37.386Z,7.15
2022-11-15T16:23:40.250Z,7.07
2022-11-15T16:26:42.446Z,7.10
2022-11-15T16:29:45.206Z,7.02
2022-11-15T16:32:47.723Z,6.98
2022-11-15T16:35:50.270Z,7.06
2022-11-15T16:38:52.891Z,7.05
2022-11-15T16:41:55.647Z,7.06
2022-11-15T16:44:57.825Z,6.96
2022-11-15T16:48:00.218Z,7.00
2022-11-15T16:51:05.867Z,7.03
2022-11-15T16:54:08.326Z,7.05
2022-11-15T16:57:11.463Z,7.09
2022-11-15T17:00:16.647Z,7.09
2022-11-15T17:03:18.858Z,7.03
2022-11-15T17:06:23.162Z,6.97
2022-11-15T17:09:25.746Z,6.94
2022-11-15T17:12:28.797Z,7.05
2022-11-15T17:15:31.002Z,7.03
2022-11-15T17:18:34.394Z,7.09
2022-11-15T17:21:36.919Z,7.15
2022-11-15T17:24:39.508Z,7.16
2022-11-15T17:27:42.098Z,7.10
2022-11-15T17:30:46.078Z,7.18
2022-11-15T17:33:48.266Z,7.20
2022-11-15T17:36:50.759Z,7.14
2022-11-15T17:39:53.096Z,7.12
2022-11-15T17:42:56.942Z,7.11
2022-11-15T17:45:59.893Z,7.17
2022-11-15T17:49:02.705Z,7.18
2022-11-15T17:52:05.340Z,7.06
2022-11-15T17:55:08.023Z,7.12
2022-11-15T17:58:10.217Z,7.05
2022-11-15T18:01:26.664Z,7.09
2022-11-15T18:04:29.250Z,7.06
2022-11-15T18:07:31.518Z,7.02
2022-11-15T18:10:34.225Z,7.02
2022-11-15T18:13:37.189Z,7.04
2022-11-15T18:16:40.369Z,7.08
2022-11-15T18:19:42.598Z,6.98
2022-11-15T18:22:45.152Z,6.96
2022-11-15T18:25:51.457Z,6.98
2022-11-15T18:28:55.396Z,6.97
2022-11-15T18:31:58.762Z,6.89
2022-11-15T18:35:01.212Z,6.91
2022-11-15T18:38:03.482Z,6.93
2022-11-15T18:41:13.105Z,6.99
2022-11-15T18:44:15.726Z,7.03
2022-11-15T18:47:18.204Z,6.98
2022-11-15T18:50:21.671Z,6.95
2022-11-15T18:53:24.121Z,6.96
2022-11-15T18:56:27.448Z,6.96
2022-11-15T18:59:30.082Z,6.98
2022-11-15T19:02:32.464Z,6.98
2022-11-15T19:05:35.413Z,7.01
2022-11-15T19:08:38.378Z,7.00
2022-11-15T19:11:41.077Z,7.11
2022-11-15T19:14:43.292Z,7.09
2022-11-15T19:17:45.806Z,7.06
2022-11-15T19:20:49.927Z,6.97
2022-11-15T19:23:55.538Z,6.99
2022-11-15T19:26:57.717Z,7.00
2022-11-15T19:30:00.235Z,7.01
2022-11-15T19:33:02.401Z,6.99
2022-11-15T19:36:06.515Z,7.02
2022-11-15T19:39:13.205Z,7.02
2022-11-15T19:42:15.929Z,7.05
2022-11-15T19:45:18.169Z,7.04
2022-11-15T19:48:21.322Z,7.07
2022-11-15T19:51:25.035Z,7.03
2022-11-15T19:54:27.762Z,7.02
2022-11-15T19:57:29.988Z,7.05
2022-11-15T20:00:33.832Z,7.09
2022-11-15T20:03:36.723Z,7.12
2022-11-15T20:06:40.680Z,7.11
2022-11-15T20:09:43.755Z,7.08
2022-11-15T20:12:45.976Z,7.08
2022-11-15T20:15:48.778Z,7.07
2022-11-15T20:18:51.164Z,7.06
2022-11-15T20:21:56.089Z,7.03
2022-11-15T20:24:58.506Z,7.13
2022-11-15T20:28:00.968Z,7.08
2022-11-15T20:31:04.068Z,7.00
2022-11-15T20:34:06.678Z,6.96
2022-11-15T20:37:08.901Z,6.98
2022-11-15T20:40:11.861Z,6.98
2022-11-15T20:43:15.045Z,6.97
2022-11-15T20:46:17.932Z,7.01
2022-11-15T20:49:28.395Z,7.02
2022-11-15T20:52:30.986Z,7.05
2022-11-15T20:55:33.676Z,7.00
2022-11-15T20:58:36.752Z,6.97
2022-11-15T21:01:39.042Z,7.02
2022-11-15T21:04:41.596Z,7.04
2022-11-15T21:07:44.101Z,7.01
2022-11-15T21:11:08.926Z,7.02
2022-11-15T21:14:11.108Z,7.08
2022-11-15T21:17:13.584Z,7.04
2022-11-15T21:20:16.303Z,7.04
2022-11-15T21:23:18.786Z,7.09
2022-11-15T21:26:21.026Z,7.17
2022-11-15T21:29:23.851Z,7.17
2022-11-15T21:32:26.096Z,7.16
2022-11-15T21:35:28.944Z,7.20
2022-11-15T21:38:31.471Z,7.14
2022-11-15T21:41:34.417Z,7.13
2022-11-15T21:44:36.585Z,7.26
2022-11-15T21:47:42.058Z,7.22
2022-11-15T21:51:01.785Z,7.22
2022-11-15T21:54:04.299Z,7.24
2022-11-15T21:57:06.513Z,7.19
2022-11-15T22:00:28.142Z,7.20
2022-11-15T22:03:30.869Z,7.22
2022-11-15T22:06:33.719Z,7.22
2022-11-15T22:09:36.202Z,7.28
2022-11-15T22:12:38.619Z,7.36
2022-11-15T22:15:41.338Z,7.35
2022-11-15T22:18:43.602Z,7.27
2022-11-15T22:21:46.298Z,7.18
2022-11-15T22:24:48.505Z,7.23
2022-11-15T22:27:51.338Z,7.24
2022-11-15T22:30:54.997Z,7.24
2022-11-15T22:33:57.486Z,7.20
2022-11-15T22:37:19.989Z,7.19
2022-11-15T22:40:23.363Z,7.23
2022-11-15T22:43:26.575Z,7.15
2022-11-15T22:46:30.293Z,7.18
2022-11-15T22:49:32.795Z,7.21
2022-11-15T22:52:35.401Z,7.17
2022-11-15T22:55:38.067Z,7.19
2022-11-15T22:58:40.615Z,7.23
2022-11-15T23:01:43.076Z,7.29
2022-11-15T23:04:45.658Z,7.26
2022-11-15T23:07:50.371Z,7.21
2022-11-15T23:11:12.560Z,7.18
2022-11-15T23:14:34.670Z,7.19
2022-11-15T23:17:57.029Z,7.25
2022-11-15T23:21:43.906Z,7.26
2022-11-15T23:25:06.410Z,7.16
2022-11-15T23:28:08.570Z,7.19
2022-11-15T23:31:29.815Z,7.18
2022-11-15T23:34:32.412Z,7.20
2022-11-15T23:37:34.956Z,7.21
2022-11-15T23:40:37.360Z,7.24
2022-11-15T23:43:39.904Z,7.19
2022-11-15T23:46:42.251Z,7.23
2022-11-15T23:49:44.738Z,7.23
2022-11-15T23:52:46.902Z,7.25
2022-11-15T23:56:04.563Z,7.27
2022-11-15T23:59:06.819Z,7.31
